createdAt,value
2023-04-15T00:01:08.041Z,23.74
2023-04-15T00:03:34.642Z,23.73
2023-04-15T00:06:01.626Z,23.71
2023-04-15T00:08:28.112Z,23.67
2023-04-15T00:10:54.688Z,23.68
2023-04-15T00:13:21.014Z,23.66
2023-04-15T00:15:47.950Z,23.65
2023-04-15T00:18:14.287Z,23.63
2023-04-15T00:20:40.624Z,23.57
2023-04-15T00:23:07.649Z,23.56
2023-04-15T00:25:33.996Z,23.54
2023-04-15T00:28:00.321Z,23.53
2023-04-15T00:30:26.792Z,23.48
2023-04-15T00:32:53.440Z,23.45
2023-04-15T00:35:19.825Z,23.44
2023-04-15T00:37:46.563Z,23.42
2023-04-15T00:40:13.560Z,23.38
2023-04-15T00:42:39.882Z,23.37
2023-04-15T00:45:07.097Z,23.34
2023-04-15T00:47:33.526Z,23.32
2023-04-15T00:49:59.877Z,23.31
2023-04-15T00:52:26.583Z,23.27
2023-04-15T00:54:53.589Z,23.26
2023-04-15T00:57:21.644Z,23.24
2023-04-15T00:59:47.967Z,23.22
2023-04-15T01:02:14.732Z,23.21
2023-04-15T01:04:41.237Z,23.18
2023-04-15T01:07:08.037Z,23.19
2023-04-15T01:09:34.346Z,23.17
2023-04-15T01:12:00.657Z,23.15
2023-04-15T01:14:26.988Z,23.11
2023-04-15T01:16:53.309Z,23.11
2023-04-15T01:19:19.617Z,23.07
2023-04-15T01:21:46.060Z,23.06
2023-04-15T01:24:12.440Z,23.05
2023-04-15T01:26:39.226Z,23.04
2023-04-15T01:29:05.555Z,23.02
2023-04-15T01:31:31.978Z,22.98
2023-04-15T01:33:58.574Z,22.94
2023-04-15T01:36:24.975Z,22.93
2023-04-15T01:38:51.404Z,22.90
2023-04-15T01:41:21.248Z,22.89
2023-04-15T01:43:47.587Z,22.88
2023-04-15T01:46:14.068Z,22.85
2023-04-15T01:48:40.855Z,22.85
2023-04-15T01:51:08.191Z,22.83
2023-04-15T01:53:34.612Z,22.82
2023-04-15T01:56:01.341Z,22.81
2023-04-15T01:58:27.744Z,22.79
2023-04-15T02:00:54.083Z,22.79
2023-04-15T02:03:20.512Z,22.78
2023-04-15T02:05:47.009Z,22.76
2023-04-15T02:08:13.362Z,22.73
2023-04-15T02:10:39.729Z,22.73
2023-04-15T02:13:06.374Z,22.73
2023-04-15T02:15:33.314Z,22.71
2023-04-15T02:18:00.920Z,22.69
2023-04-15T02:20:27.389Z,22.68
2023-04-15T02:22:53.720Z,22.67
2023-04-15T02:25:20.523Z,22.66
2023-04-15T02:27:46.863Z,22.64
2023-04-15T02:30:13.547Z,22.63
2023-04-15T02:32:40.273Z,22.60
2023-04-15T02:35:07.571Z,22.58
2023-04-15T02:37:37.055Z,22.55
2023-04-15T02:40:03.743Z,22.53
2023-04-15T02:42:31.862Z,22.51
2023-04-15T02:44:58.329Z,22.50
2023-04-15T02:47:26.442Z,22.50
2023-04-15T02:49:52.774Z,22.48
2023-04-15T02:52:19.264Z,22.46
2023-04-15T02:54:45.872Z,22.45
2023-04-15T02:57:12.924Z,22.43
2023-04-15T02:59:39.429Z,22.41
2023-04-15T03:02:07.782Z,22.38
2023-04-15T03:04:34.219Z,22.38
2023-04-15T03:07:01.420Z,22.36
2023-04-15T03:09:27.804Z,22.35
2023-04-15T03:11:54.757Z,22.35
2023-04-15T03:14:21.328Z,22.34
2023-04-15T03:16:47.632Z,22.34
2023-04-15T03:19:14.198Z,22.34
2023-04-15T03:21:40.508Z,22.33
2023-04-15T03:24:06.833Z,22.32
2023-04-15T03:26:33.176Z,22.31
2023-04-15T03:28:59.866Z,22.30
2023-04-15T03:31:26.545Z,22.28
2023-04-15T03:33:53.253Z,22.27
2023-04-15T03:36:19.581Z,22.23
2023-04-15T03:38:45.962Z,22.22
2023-04-15T03:41:12.341Z,22.19
2023-04-15T03:43:38.700Z,22.18
2023-04-15T03:46:05.072Z,22.16
2023-04-15T03:48:31.407Z,22.15
2023-04-15T03:50:57.741Z,22.15
2023-04-15T03:53:24.143Z,22.12
2023-04-15T03:55:50.448Z,22.11
2023-04-15T03:58:16.815Z,22.09
2023-04-15T04:00:43.146Z,22.09
2023-04-15T04:03:09.722Z,22.08
2023-04-15T04:05:41.325Z,22.07
2023-04-15T04:08:07.692Z,22.06
2023-04-15T04:10:34.020Z,22.05
2023-04-15T04:13:00.600Z,22.04
2023-04-15T04:15:27.101Z,22.05
2023-04-15T04:17:53.609Z,22.04
2023-04-15T04:20:19.985Z,22.03
2023-04-15T04:22:46.568Z,22.03
2023-04-15T04:25:12.878Z,22.03
2023-04-15T04:27:39.269Z,22.00
2023-04-15T04:30:06.783Z,22.01
2023-04-15T04:32:33.356Z,21.99
2023-04-15T04:34:59.701Z,21.98
2023-04-15T04:37:26.552Z,21.94
2023-04-15T04:39:52.872Z,21.92
2023-04-15T04:42:19.204Z,21.91
2023-04-15T04:44:45.556Z,21.91
2023-04-15T04:47:11.927Z,21.89
2023-04-15T04:49:38.323Z,21.89
2023-04-15T04:52:04.777Z,21.87
2023-04-15T04:54:31.544Z,21.86
2023-04-15T04:56:57.859Z,21.85
2023-04-15T04:59:24.302Z,21.84
2023-04-15T05:01:50.628Z,21.82
2023-04-15T05:04:17.049Z,21.84
2023-04-15T05:06:43.430Z,21.86
2023-04-15T05:09:09.757Z,21.91
2023-04-15T05:11:36.165Z,21.92
2023-04-15T05:14:02.582Z,21.93
2023-04-15T05:16:28.909Z,21.90
2023-04-15T05:18:55.266Z,21.92
2023-04-15T05:21:21.587Z,21.92
2023-04-15T05:23:47.913Z,21.92
2023-04-15T05:26:14.236Z,21.90
2023-04-15T05:28:40.687Z,21.89
2023-04-15T05:31:07.447Z,21.88
2023-04-15T05:33:33.897Z,21.88
2023-04-15T05:36:00.370Z,21.87
2023-04-15T05:38:27.072Z,21.87
2023-04-15T05:40:53.392Z,21.86
2023-04-15T05:43:19.944Z,21.84
2023-04-15T05:45:46.703Z,21.85
2023-04-15T05:48:13.089Z,21.84
2023-04-15T05:50:42.357Z,21.89
2023-04-15T05:53:08.880Z,21.90
2023-04-15T05:55:35.196Z,21.91
2023-04-15T05:58:01.762Z,21.89
2023-04-15T06:00:28.110Z,21.88
2023-04-15T06:02:54.800Z,21.87
2023-04-15T06:05:21.389Z,21.86
2023-04-15T06:07:48.683Z,21.86
2023-04-15T06:10:15.486Z,21.85
2023-04-15T06:12:41.799Z,21.82
2023-04-15T06:15:10.336Z,21.83
2023-04-15T06:17:37.207Z,21.82
2023-04-15T06:20:03.896Z,21.79
2023-04-15T06:22:30.712Z,21.80
2023-04-15T06:24:57.047Z,21.79
2023-04-15T06:27:23.622Z,21.78
2023-04-15T06:29:49.925Z,21.78
2023-04-15T06:32:16.260Z,21.78
2023-04-15T06:34:42.973Z,21.79
2023-04-15T06:37:11.094Z,21.79
2023-04-15T06:39:38.250Z,21.78
2023-04-15T06:42:04.668Z,21.78
2023-04-15T06:44:33.266Z,21.79
2023-04-15T06:47:00.150Z,21.78
2023-04-15T06:49:26.706Z,21.77
2023-04-15T06:51:53.015Z,21.76
2023-04-15T06:54:19.447Z,21.77
2023-04-15T06:56:45.774Z,21.80
2023-04-15T06:59:12.895Z,21.82
2023-04-15T07:01:39.246Z,21.87
2023-04-15T07:04:06.172Z,21.89
2023-04-15T07:06:32.767Z,21.90
2023-04-15T07:08:59.543Z,21.89
2023-04-15T07:11:26.294Z,21.90
2023-04-15T07:13:52.635Z,21.91
2023-04-15T07:16:19.235Z,21.92
2023-04-15T07:18:45.689Z,21.93
2023-04-15T07:21:12.869Z,21.91
2023-04-15T07:23:39.226Z,21.88
2023-04-15T07:26:05.560Z,21.85
2023-04-15T07:28:31.935Z,21.85
2023-04-15T07:30:58.366Z,21.81
2023-04-15T07:33:24.720Z,21.82
2023-04-15T07:35:51.083Z,21.84
2023-04-15T07:38:17.435Z,21.85
2023-04-15T07:40:43.951Z,21.86
2023-04-15T07:43:10.777Z,21.86
2023-04-15T07:45:37.161Z,21.86
2023-04-15T07:48:03.545Z,21.87
2023-04-15T07:50:29.896Z,21.82
2023-04-15T07:52:56.277Z,21.83
2023-04-15T07:55:23.473Z,21.82
2023-04-15T07:57:49.824Z,21.79
2023-04-15T08:00:16.276Z,21.80
2023-04-15T08:02:43.276Z,21.81
2023-04-15T08:05:10.684Z,21.80
2023-04-15T08:07:37.725Z,21.76
2023-04-15T08:10:04.139Z,21.73
2023-04-15T08:12:30.661Z,21.71
2023-04-15T08:14:58.029Z,21.69
2023-04-15T08:17:24.694Z,21.87
2023-04-15T08:19:51.427Z,22.08
2023-04-15T08:22:18.180Z,22.17
2023-04-15T08:24:45.597Z,22.25
2023-04-15T08:27:11.939Z,22.31
2023-04-15T08:29:38.454Z,22.36
2023-04-15T08:32:04.916Z,22.36
2023-04-15T08:34:31.306Z,22.44
2023-04-15T08:36:57.685Z,22.49
2023-04-15T08:39:24.008Z,22.52
2023-04-15T08:41:53.096Z,22.53
2023-04-15T08:44:20.125Z,22.53
2023-04-15T08:46:47.483Z,22.55
2023-04-15T08:49:13.856Z,22.55
2023-04-15T08:51:40.291Z,22.52
2023-04-15T08:54:07.156Z,22.51
2023-04-15T08:56:33.567Z,22.49
2023-04-15T08:59:00.587Z,22.49
2023-04-15T09:01:27.186Z,22.49
2023-04-15T09:03:57.079Z,22.48
2023-04-15T09:06:23.524Z,22.48
2023-04-15T09:08:50.432Z,22.47
2023-04-15T09:11:20.003Z,22.47
2023-04-15T09:13:46.798Z,22.47
2023-04-15T09:16:13.630Z,22.49
2023-04-15T09:18:40.035Z,22.48
2023-04-15T09:21:08.827Z,22.47
2023-04-15T09:23:35.661Z,22.45
2023-04-15T09:26:02.555Z,22.51
2023-04-15T09:28:28.869Z,22.60
2023-04-15T09:30:58.020Z,22.65
2023-04-15T09:33:24.636Z,22.69
2023-04-15T09:35:57.951Z,22.71
2023-04-15T09:38:24.285Z,22.73
2023-04-15T09:40:50.910Z,22.70
2023-04-15T09:43:17.475Z,22.70
2023-04-15T09:45:47.460Z,22.74
2023-04-15T09:48:17.699Z,22.73
2023-04-15T09:50:44.196Z,22.74
2023-04-15T09:53:11.833Z,22.73
2023-04-15T09:55:38.178Z,22.71
2023-04-15T09:58:08.692Z,22.71
2023-04-15T10:00:35.228Z,22.69
2023-04-15T10:03:02.109Z,22.67
2023-04-15T10:05:29.829Z,22.66
2023-04-15T10:07:56.611Z,22.70
2023-04-15T10:10:22.953Z,22.74
2023-04-15T10:12:49.278Z,22.77
2023-04-15T10:15:16.778Z,22.78
2023-04-15T10:17:43.950Z,22.78
2023-04-15T10:20:10.348Z,22.77
2023-04-15T10:22:36.679Z,22.78
2023-04-15T10:25:04.134Z,22.75
2023-04-15T10:27:30.462Z,22.71
2023-04-15T10:29:57.122Z,22.69
2023-04-15T10:32:24.222Z,22.66
2023-04-15T10:34:53.066Z,22.65
2023-04-15T10:37:21.353Z,22.63
2023-04-15T10:39:47.781Z,22.57
2023-04-15T10:42:17.558Z,22.59
2023-04-15T10:44:52.860Z,22.64
2023-04-15T10:47:21.018Z,22.72
2023-04-15T10:49:48.411Z,22.75
2023-04-15T10:52:15.408Z,22.78
2023-04-15T10:54:41.798Z,22.82
2023-04-15T10:57:09.080Z,22.82
2023-04-15T10:59:39.020Z,22.82
2023-04-15T11:02:06.014Z,22.81
2023-04-15T11:04:51.364Z,22.82
2023-04-15T11:07:37.108Z,22.81
2023-04-15T11:10:04.770Z,22.82
2023-04-15T11:12:35.118Z,22.84
2023-04-15T11:15:22.139Z,22.84
2023-04-15T11:17:48.463Z,22.83
2023-04-15T11:20:15.903Z,22.82
2023-04-15T11:22:48.779Z,22.83
2023-04-15T11:25:25.941Z,22.84
2023-04-15T11:27:52.529Z,22.90
2023-04-15T11:30:28.440Z,22.93
2023-04-15T11:32:55.475Z,22.94
2023-04-15T11:35:22.101Z,22.95
2023-04-15T11:37:49.435Z,22.95
2023-04-15T11:40:17.512Z,22.89
2023-04-15T11:42:49.839Z,22.86
2023-04-15T11:45:16.600Z,22.81
2023-04-15T11:47:42.984Z,22.84
2023-04-15T11:50:16.457Z,22.84
2023-04-15T11:52:58.736Z,22.91
2023-04-15T11:55:25.467Z,22.99
2023-04-15T11:58:10.835Z,23.04
2023-04-15T12:00:37.148Z,23.09
2023-04-15T12:03:13.551Z,23.09
2023-04-15T12:05:58.857Z,23.12
2023-04-15T12:08:25.537Z,23.13
2023-04-15T12:10:51.848Z,23.10
2023-04-15T12:13:18.213Z,23.09
2023-04-15T12:15:45.455Z,23.03
2023-04-15T12:18:19.172Z,22.96
2023-04-15T12:20:45.722Z,22.92
2023-04-15T12:23:12.061Z,22.92
2023-04-15T12:25:38.637Z,22.90
2023-04-15T12:28:11.084Z,22.88
2023-04-15T12:30:37.841Z,22.87
2023-04-15T12:33:04.933Z,22.92
2023-04-15T12:35:31.283Z,22.97
2023-04-15T12:37:57.606Z,22.97
2023-04-15T12:40:23.930Z,22.97
2023-04-15T12:42:50.235Z,22.96
2023-04-15T12:45:16.539Z,22.95
2023-04-15T12:47:42.883Z,22.92
2023-04-15T12:50:09.213Z,22.90
2023-04-15T12:52:35.511Z,22.89
2023-04-15T12:55:01.832Z,22.87
2023-04-15T12:57:28.251Z,22.84
2023-04-15T12:59:54.587Z,22.84
2023-04-15T13:02:25.445Z,22.90
2023-04-15T13:04:52.300Z,22.91
2023-04-15T13:07:18.692Z,22.94
2023-04-15T13:09:45.098Z,22.94
2023-04-15T13:12:13.739Z,22.93
2023-04-15T13:14:40.581Z,22.90
2023-04-15T13:17:10.152Z,22.88
2023-04-15T13:19:37.065Z,22.86
2023-04-15T13:22:03.622Z,22.83
2023-04-15T13:24:29.930Z,22.82
2023-04-15T13:26:59.065Z,22.80
2023-04-15T13:29:25.731Z,22.81
2023-04-15T13:31:52.335Z,22.88
2023-04-15T13:34:18.761Z,22.91
2023-04-15T13:36:45.921Z,22.92
2023-04-15T13:39:12.256Z,22.91
2023-04-15T13:41:38.917Z,22.90
2023-04-15T13:44:06.391Z,22.89
2023-04-15T13:46:32.956Z,22.88
2023-04-15T13:48:59.299Z,22.87
2023-04-15T13:51:26.979Z,22.83
2023-04-15T13:53:53.300Z,22.81
2023-04-15T13:56:19.800Z,22.78
2023-04-15T13:58:46.117Z,22.74
2023-04-15T14:01:12.729Z,22.75
2023-04-15T14:03:39.386Z,22.81
2023-04-15T14:06:06.059Z,22.90
2023-04-15T14:08:32.714Z,22.98
2023-04-15T14:10:59.051Z,22.99
2023-04-15T14:13:25.400Z,22.98
2023-04-15T14:15:51.726Z,22.97
2023-04-15T14:18:18.047Z,22.95
2023-04-15T14:20:44.410Z,22.93
2023-04-15T14:23:10.943Z,22.97
2023-04-15T14:25:39.128Z,22.97
2023-04-15T14:28:08.383Z,22.96
2023-04-15T14:30:34.752Z,23.00
2023-04-15T14:33:01.262Z,23.04
2023-04-15T14:35:27.963Z,23.08
2023-04-15T14:37:54.367Z,23.16
2023-04-15T14:40:20.717Z,23.41
2023-04-15T14:42:47.072Z,23.59
2023-04-15T14:45:13.433Z,23.73
2023-04-15T14:47:39.773Z,23.83
2023-04-15T14:50:06.273Z,23.96
2023-04-15T14:52:38.873Z,24.06
2023-04-15T14:55:08.324Z,24.17
2023-04-15T14:57:34.656Z,24.28
2023-04-15T15:00:00.969Z,24.42
2023-04-15T15:02:38.111Z,24.48
2023-04-15T15:05:06.553Z,24.60
2023-04-15T15:07:33.007Z,24.66
2023-04-15T15:09:59.309Z,24.71
2023-04-15T15:12:25.730Z,24.77
2023-04-15T15:14:52.039Z,24.82
2023-04-15T15:17:18.359Z,24.86
2023-04-15T15:19:44.692Z,24.95
2023-04-15T15:22:11.004Z,25.01
2023-04-15T15:24:37.318Z,25.06
2023-04-15T15:27:03.636Z,25.11
2023-04-15T15:29:29.944Z,25.02
2023-04-15T15:31:56.561Z,24.82
2023-04-15T15:34:22.866Z,24.69
2023-04-15T15:36:49.195Z,24.63
2023-04-15T15:39:15.687Z,24.57
2023-04-15T15:41:41.998Z,24.54
2023-04-15T15:44:08.321Z,24.58
2023-04-15T15:46:35.276Z,24.62
2023-04-15T15:49:02.786Z,24.57
2023-04-15T15:51:29.417Z,24.51
2023-04-15T15:53:55.957Z,24.52
2023-04-15T15:56:22.329Z,24.53
2023-04-15T15:58:48.652Z,24.52
2023-04-15T16:01:14.969Z,24.51
2023-04-15T16:03:41.451Z,24.53
2023-04-15T16:06:07.864Z,24.50
2023-04-15T16:08:34.175Z,24.53
2023-04-15T16:11:00.488Z,24.51
2023-04-15T16:13:26.806Z,24.51
2023-04-15T16:15:53.120Z,24.57
2023-04-15T16:18:19.444Z,24.61
2023-04-15T16:20:45.839Z,24.63
2023-04-15T16:23:13.146Z,24.78
2023-04-15T16:25:39.587Z,24.79
2023-04-15T16:28:15.044Z,24.81
2023-04-15T16:30:51.744Z,24.85
2023-04-15T16:33:18.073Z,24.84
2023-04-15T16:35:44.475Z,24.85
2023-04-15T16:38:10.795Z,24.83
2023-04-15T16:40:37.249Z,24.82
2023-04-15T16:43:03.699Z,24.86
2023-04-15T16:45:30.104Z,24.81
2023-04-15T16:47:56.928Z,24.79
2023-04-15T16:50:23.936Z,24.70
2023-04-15T16:52:50.274Z,24.71
2023-04-15T16:55:16.587Z,24.69
2023-04-15T16:58:00.617Z,24.70
2023-04-15T17:00:29.506Z,24.77
2023-04-15T17:02:55.940Z,24.76
2023-04-15T17:05:22.665Z,24.73
2023-04-15T17:07:49.029Z,24.68
2023-04-15T17:10:15.397Z,24.67
2023-04-15T17:12:41.737Z,24.63
2023-04-15T17:15:08.385Z,24.60
2023-04-15T17:17:34.989Z,24.59
2023-04-15T17:20:01.347Z,24.61
2023-04-15T17:22:27.757Z,24.63
2023-04-15T17:24:54.081Z,24.69
2023-04-15T17:27:21.213Z,24.69
2023-04-15T17:29:47.527Z,24.73
2023-04-15T17:32:13.838Z,24.70
2023-04-15T17:34:49.805Z,24.72
2023-04-15T17:37:17.478Z,24.70
2023-04-15T17:39:43.819Z,24.68
2023-04-15T17:42:13.125Z,24.61
2023-04-15T17:44:39.558Z,24.62
2023-04-15T17:47:05.858Z,24.54
2023-04-15T17:49:34.077Z,24.49
2023-04-15T17:52:00.606Z,24.51
2023-04-15T17:54:26.944Z,24.43
2023-04-15T17:56:53.463Z,24.43
2023-04-15T17:59:19.815Z,24.39
2023-04-15T18:01:46.156Z,24.34
2023-04-15T18:04:12.933Z,24.42
2023-04-15T18:06:39.570Z,24.52
2023-04-15T18:09:06.824Z,24.54
2023-04-15T18:11:33.496Z,24.57
2023-04-15T18:13:59.827Z,24.52
2023-04-15T18:16:26.241Z,24.60
2023-04-15T18:18:52.772Z,24.59
2023-04-15T18:21:19.104Z,24.57
2023-04-15T18:23:45.929Z,24.57
2023-04-15T18:26:12.595Z,24.54
2023-04-15T18:28:39.800Z,24.52
2023-04-15T18:31:06.287Z,24.56
2023-04-15T18:33:32.635Z,24.52
2023-04-15T18:35:58.962Z,24.54
2023-04-15T18:38:25.273Z,24.73
2023-04-15T18:40:51.748Z,25.07
2023-04-15T18:43:18.065Z,25.28
2023-04-15T18:45:44.429Z,25.32
2023-04-15T18:48:10.863Z,25.35
2023-04-15T18:50:37.232Z,25.33
2023-04-15T18:53:03.550Z,25.38
2023-04-15T18:55:29.884Z,25.39
2023-04-15T18:57:56.772Z,25.42
2023-04-15T19:00:32.641Z,25.43
2023-04-15T19:02:59.825Z,25.46
2023-04-15T19:05:26.233Z,25.54
2023-04-15T19:07:52.557Z,25.60
2023-04-15T19:10:18.943Z,25.61
2023-04-15T19:12:45.466Z,25.65
2023-04-15T19:15:11.780Z,25.67
2023-04-15T19:17:38.367Z,25.73
2023-04-15T19:20:04.986Z,25.74
2023-04-15T19:22:31.316Z,25.84
2023-04-15T19:24:57.684Z,25.51
2023-04-15T19:27:24.027Z,24.25
2023-04-15T19:29:50.375Z,23.89
2023-04-15T19:32:16.765Z,23.73
2023-04-15T19:34:43.124Z,23.67
2023-04-15T19:37:09.443Z,23.66
2023-04-15T19:39:35.831Z,24.22
2023-04-15T19:42:02.691Z,24.79
2023-04-15T19:44:29.351Z,25.06
2023-04-15T19:46:55.823Z,25.21
2023-04-15T19:49:22.149Z,25.24
2023-04-15T19:51:49.349Z,25.30
2023-04-15T19:54:15.839Z,25.32
2023-04-15T19:56:42.206Z,25.29
2023-04-15T19:59:08.535Z,25.27
2023-04-15T20:01:34.867Z,25.27
2023-04-15T20:04:03.528Z,25.28
2023-04-15T20:06:30.261Z,25.22
2023-04-15T20:08:56.675Z,25.22
2023-04-15T20:12:09.659Z,25.24
2023-04-15T20:14:15.366Z,25.22
2023-04-15T20:16:41.673Z,25.19
2023-04-15T20:19:09.358Z,25.18
2023-04-15T20:21:35.989Z,25.18
2023-04-15T20:24:02.460Z,25.16
2023-04-15T20:26:28.798Z,25.15
2023-04-15T20:28:55.356Z,25.12
2023-04-15T20:31:21.868Z,25.11
2023-04-15T20:33:48.490Z,25.11
2023-04-15T20:36:14.813Z,25.08
2023-04-15T20:38:41.119Z,25.10
2023-04-15T20:41:07.442Z,25.09
2023-04-15T20:43:33.787Z,25.05
2023-04-15T20:46:09.946Z,25.05
2023-04-15T20:48:44.038Z,25.04
2023-04-15T20:51:10.417Z,25.05
2023-04-15T20:53:36.767Z,25.03
2023-04-15T20:56:03.105Z,25.03
2023-04-15T20:58:29.418Z,25.02
2023-04-15T21:00:55.815Z,25.02
2023-04-15T21:03:22.346Z,25.01
2023-04-15T21:05:48.947Z,24.99
2023-04-15T21:08:15.435Z,24.96
2023-04-15T21:10:41.767Z,24.97
2023-04-15T21:13:08.182Z,24.96
2023-04-15T21:15:34.574Z,24.94
2023-04-15T21:18:01.020Z,24.94
2023-04-15T21:20:27.943Z,24.93
2023-04-15T21:22:54.635Z,24.89
2023-04-15T21:25:21.138Z,24.90
2023-04-15T21:27:47.507Z,24.89
2023-04-15T21:30:13.823Z,24.92
2023-04-15T21:32:40.240Z,24.77
2023-04-15T21:35:06.750Z,24.71
2023-04-15T21:37:33.067Z,24.65
2023-04-15T21:39:59.535Z,24.62
2023-04-15T21:42:26.168Z,24.64
2023-04-15T21:44:52.562Z,24.65
2023-04-15T21:47:18.936Z,24.63
2023-04-15T21:49:45.356Z,24.71
2023-04-15T21:52:11.663Z,24.81
2023-04-15T21:54:38.011Z,24.85
2023-04-15T21:57:04.362Z,24.85
2023-04-15T21:59:30.667Z,24.87
2023-04-15T22:01:57.127Z,24.85
2023-04-15T22:04:23.661Z,24.84
2023-04-15T22:06:50.150Z,24.81
2023-04-15T22:09:16.785Z,24.78
2023-04-15T22:11:43.411Z,24.81
2023-04-15T22:14:09.764Z,24.77
2023-04-15T22:16:36.132Z,24.77
2023-04-15T22:19:02.586Z,24.82
2023-04-15T22:21:28.954Z,25.01
2023-04-15T22:24:37.243Z,25.16
2023-04-15T22:26:41.747Z,25.30
2023-04-15T22:29:08.291Z,25.37
2023-04-15T22:31:34.634Z,25.46
2023-04-15T22:34:01.098Z,25.54
2023-04-15T22:36:28.008Z,25.62
2023-04-15T22:38:54.348Z,25.67
2023-04-15T22:41:20.897Z,25.70
2023-04-15T22:43:47.213Z,25.78
2023-04-15T22:46:13.580Z,25.82
2023-04-15T22:48:40.019Z,25.87
2023-04-15T22:51:06.484Z,25.96
2023-04-15T22:53:32.812Z,26.01
2023-04-15T22:55:59.118Z,26.05
2023-04-15T22:58:25.560Z,26.14
2023-04-15T23:00:51.922Z,26.15
2023-04-15T23:03:18.338Z,26.19
2023-04-15T23:05:45.610Z,26.20
2023-04-15T23:08:11.991Z,26.24
2023-04-15T23:10:40.072Z,26.27
2023-04-15T23:13:06.474Z,26.29
2023-04-15T23:15:32.803Z,26.32
2023-04-15T23:18:00.332Z,26.33
2023-04-15T23:20:26.699Z,26.35
2023-04-15T23:22:53.055Z,26.34
2023-04-15T23:25:22.165Z,26.32
2023-04-15T23:27:48.480Z,26.13
2023-04-15T23:30:14.991Z,25.91
2023-04-15T23:32:41.342Z,26.13
2023-04-15T23:35:07.820Z,26.23
2023-04-15T23:37:34.131Z,26.25
2023-04-15T23:40:00.490Z,26.31
2023-04-15T23:42:27.053Z,26.32
2023-04-15T23:44:53.389Z,26.31
2023-04-15T23:47:19.736Z,26.32
2023-04-15T23:49:46.242Z,26.28
2023-04-15T23:52:12.567Z,26.32
2023-04-15T23:54:39.383Z,26.31
2023-04-15T23:57:05.868Z,26.30
2023-04-15T23:59:32.207Z,26.29
